createdAt,value
2023-04-15T00:00:59.791Z,5.30
2023-04-15T00:03:27.142Z,3.65
2023-04-15T00:05:54.224Z,2.58
2023-04-15T00:08:20.967Z,2.72
2023-04-15T00:10:47.973Z,3.15
2023-04-15T00:13:15.411Z,3.50
2023-04-15T00:15:43.369Z,2.95
2023-04-15T00:18:10.441Z,6.00
2023-04-15T00:20:37.745Z,2.67
2023-04-15T00:23:05.587Z,3.03
2023-04-15T00:25:32.512Z,3.28
2023-04-15T00:27:59.448Z,3.28
2023-04-15T00:30:26.615Z,6.25
2023-04-15T00:32:53.660Z,3.50
2023-04-15T00:35:20.846Z,2.90
2023-04-15T00:37:47.675Z,2.70
2023-04-15T00:40:16.918Z,5.25
2023-04-15T00:42:43.675Z,4.10
2023-04-15T00:45:11.313Z,4.15
2023-04-15T00:47:39.322Z,3.80
2023-04-15T00:50:06.834Z,5.25
2023-04-15T00:52:34.822Z,8.52
2023-04-15T00:55:02.409Z,6.93
2023-04-15T00:57:29.450Z,4.95
2023-04-15T00:59:56.821Z,3.80
2023-04-15T01:02:24.552Z,2.92
2023-04-15T01:04:52.056Z,3.75
2023-04-15T01:07:19.444Z,5.00
2023-04-15T01:09:46.327Z,3.42
2023-04-15T01:12:15.512Z,3.55
2023-04-15T01:14:42.570Z,4.93
2023-04-15T01:17:09.828Z,3.83
2023-04-15T01:19:37.166Z,5.85
2023-04-15T01:22:04.178Z,4.20
2023-04-15T01:24:33.217Z,6.95
2023-04-15T01:27:00.022Z,4.13
2023-04-15T01:29:27.522Z,3.05
2023-04-15T01:31:56.017Z,4.55
2023-04-15T01:34:23.462Z,4.25
2023-04-15T01:36:50.446Z,4.45
2023-04-15T01:39:17.260Z,3.67
2023-04-15T01:41:44.200Z,4.15
2023-04-15T01:44:11.155Z,4.80
2023-04-15T01:46:38.189Z,8.60
2023-04-15T01:49:05.067Z,5.35
2023-04-15T01:51:32.219Z,5.35
2023-04-15T01:53:59.153Z,5.07
2023-04-15T01:56:26.624Z,5.30
2023-04-15T01:58:53.647Z,4.05
2023-04-15T02:01:20.972Z,4.05
2023-04-15T02:03:48.363Z,5.35
2023-04-15T02:06:15.339Z,12.15
2023-04-15T02:08:42.190Z,5.10
2023-04-15T02:11:09.404Z,3.10
2023-04-15T02:13:36.309Z,4.25
2023-04-15T02:16:04.005Z,4.43
2023-04-15T02:18:31.065Z,6.38
2023-04-15T02:20:58.918Z,7.25
2023-04-15T02:23:25.916Z,4.07
2023-04-15T02:25:53.269Z,3.90
2023-04-15T02:28:21.945Z,12.73
2023-04-15T02:30:52.784Z,14.23
2023-04-15T02:33:21.807Z,6.95
2023-04-15T02:35:48.801Z,5.78
2023-04-15T02:38:17.876Z,3.90
2023-04-15T02:40:44.686Z,3.25
2023-04-15T02:43:11.607Z,4.55
2023-04-15T02:45:38.447Z,6.97
2023-04-15T02:48:06.706Z,4.30
2023-04-15T02:50:33.752Z,7.53
2023-04-15T02:53:03.648Z,3.72
2023-04-15T02:55:30.644Z,5.63
2023-04-15T02:57:59.682Z,7.88
2023-04-15T03:00:27.379Z,3.20
2023-04-15T03:02:59.554Z,4.03
2023-04-15T03:05:26.884Z,4.05
2023-04-15T03:07:54.264Z,4.18
2023-04-15T03:10:21.877Z,4.20
2023-04-15T03:12:49.148Z,8.27
2023-04-15T03:15:16.753Z,9.93
2023-04-15T03:17:43.699Z,6.45
2023-04-15T03:20:11.351Z,5.50
2023-04-15T03:22:38.167Z,8.68
2023-04-15T03:25:05.324Z,4.35
2023-04-15T03:27:32.180Z,4.93
2023-04-15T03:29:58.970Z,5.90
2023-04-15T03:32:25.908Z,4.57
2023-04-15T03:34:52.759Z,9.90
2023-04-15T03:37:19.503Z,11.88
2023-04-15T03:39:46.829Z,5.00
2023-04-15T03:42:13.596Z,5.70
2023-04-15T03:44:40.663Z,5.72
2023-04-15T03:47:07.659Z,7.00
2023-04-15T03:49:34.490Z,8.77
2023-04-15T03:52:01.409Z,8.90
2023-04-15T03:54:28.471Z,5.43
2023-04-15T03:56:55.985Z,6.28
2023-04-15T03:59:22.828Z,7.82
2023-04-15T04:01:49.944Z,6.25
2023-04-15T04:04:16.945Z,7.80
2023-04-15T04:06:43.989Z,6.00
2023-04-15T04:09:10.869Z,5.30
2023-04-15T04:11:37.794Z,6.47
2023-04-15T04:14:04.606Z,5.15
2023-04-15T04:16:31.559Z,9.27
2023-04-15T04:18:58.343Z,11.88
2023-04-15T04:21:25.174Z,8.77
2023-04-15T04:23:51.977Z,21.45
2023-04-15T04:26:19.798Z,11.38
2023-04-15T04:28:46.626Z,8.20
2023-04-15T04:31:13.396Z,12.70
2023-04-15T04:33:40.446Z,9.05
2023-04-15T04:36:07.604Z,7.95
2023-04-15T04:38:34.394Z,10.63
2023-04-15T04:41:01.271Z,8.55
2023-04-15T04:43:28.029Z,9.13
2023-04-15T04:45:55.979Z,24.50
2023-04-15T04:48:23.005Z,15.15
2023-04-15T04:50:49.931Z,15.15
2023-04-15T04:53:18.066Z,12.98
2023-04-15T04:55:44.844Z,15.50
2023-04-15T04:58:11.734Z,12.93
2023-04-15T05:00:38.537Z,13.85
2023-04-15T05:03:05.469Z,10.82
2023-04-15T05:05:32.365Z,11.82
2023-04-15T05:07:59.129Z,13.32
2023-04-15T05:10:26.178Z,10.15
2023-04-15T05:12:53.035Z,12.68
2023-04-15T05:15:20.405Z,12.80
2023-04-15T05:17:47.190Z,15.27
2023-04-15T05:20:14.492Z,11.13
2023-04-15T05:22:41.526Z,12.70
2023-04-15T05:25:08.815Z,11.63
2023-04-15T05:27:36.142Z,12.10
2023-04-15T05:30:03.063Z,11.95
2023-04-15T05:32:29.914Z,18.27
2023-04-15T05:34:56.698Z,17.05
2023-04-15T05:37:23.566Z,12.55
2023-04-15T05:39:50.302Z,15.43
2023-04-15T05:42:17.073Z,14.18
2023-04-15T05:44:43.936Z,13.88
2023-04-15T05:47:11.016Z,14.23
2023-04-15T05:49:37.942Z,14.20
2023-04-15T05:52:04.888Z,13.90
2023-04-15T05:54:31.807Z,12.13
2023-04-15T05:56:59.293Z,11.63
2023-04-15T05:59:26.069Z,15.35
2023-04-15T06:01:53.081Z,11.43
2023-04-15T06:04:20.159Z,12.63
2023-04-15T06:06:47.245Z,14.02
2023-04-15T06:09:14.083Z,14.15
2023-04-15T06:11:41.395Z,13.77
2023-04-15T06:14:08.361Z,10.05
2023-04-15T06:16:36.735Z,12.65
2023-04-15T06:19:03.935Z,14.40
2023-04-15T06:21:31.597Z,11.95
2023-04-15T06:24:01.618Z,12.85
2023-04-15T06:26:28.913Z,11.60
2023-04-15T06:28:55.835Z,13.25
2023-04-15T06:31:22.884Z,10.88
2023-04-15T06:33:49.855Z,11.27
2023-04-15T06:36:16.828Z,12.65
2023-04-15T06:38:43.573Z,11.20
2023-04-15T06:41:10.777Z,11.70
2023-04-15T06:43:37.642Z,26.70
2023-04-15T06:46:04.623Z,14.77
2023-04-15T06:48:38.158Z,12.75
2023-04-15T06:51:05.215Z,11.60
2023-04-15T06:53:32.160Z,11.50
2023-04-15T06:55:58.964Z,11.25
2023-04-15T06:58:25.841Z,15.05
2023-04-15T07:00:53.422Z,13.15
2023-04-15T07:03:20.338Z,10.93
2023-04-15T07:05:47.170Z,12.75
2023-04-15T07:08:14.122Z,10.40
2023-04-15T07:10:41.595Z,10.35
2023-04-15T07:13:08.998Z,19.15
2023-04-15T07:15:35.969Z,10.43
2023-04-15T07:18:02.963Z,10.80
2023-04-15T07:20:29.843Z,9.60
2023-04-15T07:22:56.721Z,12.23
2023-04-15T07:25:23.494Z,10.27
2023-04-15T07:27:50.626Z,8.85
2023-04-15T07:30:17.429Z,8.20
2023-04-15T07:32:44.334Z,10.30
2023-04-15T07:35:11.745Z,9.35
2023-04-15T07:37:38.582Z,8.40
2023-04-15T07:40:07.276Z,9.80
2023-04-15T07:42:34.738Z,10.73
2023-04-15T07:45:01.631Z,8.90
2023-04-15T07:47:28.521Z,9.80
2023-04-15T07:49:55.283Z,9.07
2023-04-15T07:52:22.306Z,10.27
2023-04-15T07:54:49.261Z,14.07
2023-04-15T07:57:17.153Z,13.50
2023-04-15T07:59:43.913Z,13.45
2023-04-15T08:02:11.982Z,12.95
2023-04-15T08:04:39.513Z,12.52
2023-04-15T08:07:07.184Z,12.85
2023-04-15T08:09:34.115Z,13.57
2023-04-15T08:12:01.140Z,9.95
2023-04-15T08:14:29.688Z,12.63
2023-04-15T08:16:56.438Z,11.52
2023-04-15T08:19:24.344Z,12.70
2023-04-15T08:21:52.070Z,11.05
2023-04-15T08:24:18.842Z,10.23
2023-04-15T08:26:46.932Z,8.35
2023-04-15T08:29:14.035Z,11.75
2023-04-15T08:31:41.068Z,7.25
2023-04-15T08:34:07.941Z,8.70
2023-04-15T08:36:34.868Z,11.70
2023-04-15T08:39:02.385Z,9.73
2023-04-15T08:41:39.759Z,9.65
2023-04-15T08:44:07.272Z,6.25
2023-04-15T08:46:34.938Z,8.00
2023-04-15T08:49:05.148Z,5.78
2023-04-15T08:51:33.979Z,5.63
2023-04-15T08:54:02.588Z,5.60
2023-04-15T08:56:34.999Z,7.65
2023-04-15T08:59:02.835Z,8.52
2023-04-15T09:01:30.007Z,9.95
2023-04-15T09:03:57.671Z,6.28
2023-04-15T09:06:25.124Z,7.18
2023-04-15T09:08:53.002Z,5.95
2023-04-15T09:11:21.560Z,5.38
2023-04-15T09:13:49.282Z,6.55
2023-04-15T09:16:16.299Z,6.75
2023-04-15T09:18:43.359Z,5.63
2023-04-15T09:21:16.270Z,7.28
2023-04-15T09:23:59.400Z,5.75
2023-04-15T09:26:37.188Z,6.60
2023-04-15T09:29:13.937Z,7.07
2023-04-15T09:31:42.553Z,6.10
2023-04-15T09:34:09.401Z,3.97
2023-04-15T09:36:56.243Z,4.88
2023-04-15T09:39:23.170Z,5.32
2023-04-15T09:42:09.131Z,4.40
2023-04-15T09:44:36.109Z,3.63
2023-04-15T09:47:03.023Z,5.57
2023-04-15T09:49:29.884Z,4.50
2023-04-15T09:52:05.569Z,4.35
2023-04-15T09:54:37.967Z,5.55
2023-04-15T09:57:10.482Z,4.97
2023-04-15T09:59:37.472Z,3.65
2023-04-15T10:02:07.967Z,3.75
2023-04-15T10:04:38.459Z,3.88
2023-04-15T10:07:06.459Z,3.72
2023-04-15T10:09:34.850Z,4.18
2023-04-15T10:12:04.245Z,7.38
2023-04-15T10:14:35.633Z,3.75
2023-04-15T10:17:03.455Z,3.90
2023-04-15T10:19:33.358Z,7.55
2023-04-15T10:22:00.678Z,4.07
2023-04-15T10:24:27.893Z,5.20
2023-04-15T10:26:55.442Z,6.60
2023-04-15T10:29:23.343Z,3.33
2023-04-15T10:31:51.134Z,5.30
2023-04-15T10:34:19.254Z,4.43
2023-04-15T10:36:47.357Z,6.50
2023-04-15T10:39:34.220Z,3.95
2023-04-15T10:42:15.365Z,4.05
2023-04-15T10:44:44.714Z,4.10
2023-04-15T10:47:14.536Z,4.45
2023-04-15T10:49:52.519Z,3.72
2023-04-15T10:52:24.679Z,5.38
2023-04-15T10:55:22.387Z,2.80
2023-04-15T10:57:56.062Z,2.88
2023-04-15T11:00:26.853Z,4.22
2023-04-15T11:03:07.891Z,5.05
2023-04-15T11:05:53.222Z,4.05
2023-04-15T11:08:20.990Z,3.65
2023-04-15T11:10:47.714Z,2.70
2023-04-15T11:13:22.704Z,5.20
2023-04-15T11:15:50.387Z,3.38
2023-04-15T11:18:22.614Z,4.38
2023-04-15T11:20:51.411Z,3.47
2023-04-15T11:23:47.728Z,5.70
2023-04-15T11:26:15.472Z,3.53
2023-04-15T11:28:45.088Z,2.92
2023-04-15T11:31:14.292Z,3.08
2023-04-15T11:34:10.480Z,4.22
2023-04-15T11:36:37.345Z,3.13
2023-04-15T11:39:07.581Z,3.03
2023-04-15T11:41:36.481Z,7.38
2023-04-15T11:44:03.433Z,3.47
2023-04-15T11:46:31.827Z,8.25
2023-04-15T11:48:58.778Z,3.80
2023-04-15T11:51:25.606Z,3.78
2023-04-15T11:53:52.415Z,4.50
2023-04-15T11:56:24.131Z,7.03
2023-04-15T11:59:02.277Z,4.00
2023-04-15T12:01:46.814Z,4.45
2023-04-15T12:04:36.711Z,4.78
2023-04-15T12:07:07.591Z,12.25
2023-04-15T12:09:38.126Z,7.35
2023-04-15T12:12:04.924Z,4.13
2023-04-15T12:14:32.863Z,4.55
2023-04-15T12:17:04.928Z,4.97
2023-04-15T12:19:43.069Z,3.17
2023-04-15T12:22:12.204Z,3.70
2023-04-15T12:24:39.461Z,3.30
2023-04-15T12:27:11.328Z,3.33
2023-04-15T12:32:13.386Z,3.30
2023-04-15T12:34:42.362Z,3.30
2023-04-15T12:37:11.304Z,4.75
2023-04-15T12:39:40.200Z,7.45
2023-04-15T12:42:07.771Z,2.95
2023-04-15T12:44:35.759Z,5.05
2023-04-15T12:47:03.260Z,3.33
2023-04-15T12:49:32.917Z,5.18
2023-04-15T12:52:01.253Z,5.50
2023-04-15T12:54:29.229Z,2.40
2023-04-15T12:56:56.496Z,2.10
2023-04-15T12:59:24.131Z,2.85
2023-04-15T13:01:52.614Z,3.03
2023-04-15T13:04:21.348Z,4.43
2023-04-15T13:06:48.358Z,3.03
2023-04-15T13:09:15.762Z,4.50
2023-04-15T13:11:42.741Z,5.30
2023-04-15T13:14:11.782Z,4.00
2023-04-15T13:16:39.004Z,4.40
2023-04-15T13:19:05.828Z,5.70
2023-04-15T13:21:35.760Z,3.05
2023-04-15T13:24:03.704Z,8.13
2023-04-15T13:26:31.686Z,3.25
2023-04-15T13:28:58.699Z,2.45
2023-04-15T13:31:25.608Z,4.03
2023-04-15T13:33:52.573Z,3.65
2023-04-15T13:36:19.698Z,3.75
2023-04-15T13:38:47.542Z,5.72
2023-04-15T13:41:16.075Z,2.83
2023-04-15T13:43:42.897Z,4.65
2023-04-15T13:46:09.731Z,3.72
2023-04-15T13:48:36.676Z,8.95
2023-04-15T13:51:03.469Z,7.97
2023-04-15T13:53:37.823Z,7.57
2023-04-15T13:56:07.466Z,5.38
2023-04-15T13:58:58.964Z,2.90
2023-04-15T14:01:26.134Z,7.25
2023-04-15T14:04:20.375Z,3.03
2023-04-15T14:06:47.394Z,5.03
2023-04-15T14:09:14.501Z,4.28
2023-04-15T14:11:41.502Z,2.97
2023-04-15T14:14:08.265Z,16.33
2023-04-15T14:16:35.205Z,5.00
2023-04-15T14:19:03.405Z,2.60
2023-04-15T14:21:32.082Z,1.65
2023-04-15T14:23:59.123Z,2.42
2023-04-15T14:26:25.978Z,3.30
2023-04-15T14:28:52.777Z,6.03
2023-04-15T14:31:20.007Z,6.00
2023-04-15T14:33:46.799Z,7.47
2023-04-15T14:36:13.679Z,10.88
2023-04-15T14:38:41.125Z,11.70
2023-04-15T14:41:08.176Z,6.63
2023-04-15T14:43:35.450Z,4.20
2023-04-15T14:46:02.573Z,9.35
2023-04-15T14:48:30.973Z,4.47
2023-04-15T14:50:58.220Z,2.05
2023-04-15T14:53:25.072Z,2.28
2023-04-15T14:55:51.837Z,1.67
2023-04-15T14:58:18.618Z,1.88
2023-04-15T15:00:46.013Z,2.28
2023-04-15T15:03:13.209Z,5.10
2023-04-15T15:05:41.329Z,14.65
2023-04-15T15:08:09.190Z,2.97
2023-04-15T15:10:48.629Z,6.03
2023-04-15T15:13:17.341Z,1.73
2023-04-15T15:15:44.194Z,3.70
2023-04-15T15:18:11.532Z,1.88
2023-04-15T15:20:38.532Z,2.40
2023-04-15T15:23:05.493Z,2.20
2023-04-15T15:25:32.339Z,2.13
2023-04-15T15:27:59.145Z,1.50
2023-04-15T15:30:26.160Z,3.10
2023-04-15T15:32:52.979Z,2.22
2023-04-15T15:35:19.870Z,3.65
2023-04-15T15:37:46.852Z,3.30
2023-04-15T15:40:13.938Z,4.05
2023-04-15T15:42:40.792Z,3.78
2023-04-15T15:45:07.911Z,5.18
2023-04-15T15:47:34.770Z,2.60
2023-04-15T15:50:03.046Z,3.35
2023-04-15T15:52:31.054Z,14.73
2023-04-15T15:54:57.859Z,16.83
2023-04-15T15:57:24.593Z,4.35
2023-04-15T16:00:00.728Z,3.92
2023-04-15T16:03:04.350Z,4.40
2023-04-15T16:05:23.937Z,3.95
2023-04-15T16:07:50.869Z,9.55
2023-04-15T16:10:17.993Z,3.60
2023-04-15T16:12:44.830Z,6.38
2023-04-15T16:15:12.871Z,4.70
2023-04-15T16:17:39.698Z,4.80
2023-04-15T16:20:07.057Z,2.83
2023-04-15T16:22:35.114Z,5.05
2023-04-15T16:25:02.370Z,3.75
2023-04-15T16:27:29.379Z,4.65
2023-04-15T16:29:56.269Z,5.07
2023-04-15T16:32:23.177Z,6.93
2023-04-15T16:34:50.064Z,5.30
2023-04-15T16:37:16.832Z,4.95
2023-04-15T16:39:43.683Z,4.20
2023-04-15T16:42:10.651Z,4.68
2023-04-15T16:44:37.593Z,6.97
2023-04-15T16:47:04.491Z,4.85
2023-04-15T16:49:31.276Z,4.05
2023-04-15T16:51:58.080Z,6.63
2023-04-15T16:54:24.825Z,4.10
2023-04-15T16:56:51.584Z,4.03
2023-04-15T16:59:18.333Z,5.75
2023-04-15T17:01:45.867Z,6.07
2023-04-15T17:04:12.763Z,6.25
2023-04-15T17:06:39.603Z,10.48
2023-04-15T17:09:06.560Z,9.65
2023-04-15T17:11:35.070Z,9.88
2023-04-15T17:14:03.131Z,4.68
2023-04-15T17:16:29.991Z,7.40
2023-04-15T17:18:56.847Z,5.47
2023-04-15T17:21:23.676Z,4.30
2023-04-15T17:23:51.054Z,7.00
2023-04-15T17:26:19.023Z,4.78
2023-04-15T17:28:46.043Z,4.35
2023-04-15T17:31:12.908Z,5.28
2023-04-15T17:34:00.583Z,6.25
2023-04-15T17:36:27.130Z,5.82
2023-04-15T17:38:56.476Z,6.20
2023-04-15T17:41:24.104Z,11.23
2023-04-15T17:43:50.980Z,9.70
2023-04-15T17:46:19.322Z,8.20
2023-04-15T17:48:46.712Z,5.97
2023-04-15T17:51:13.580Z,5.45
2023-04-15T17:53:40.328Z,8.20
2023-04-15T17:56:07.179Z,8.73
2023-04-15T17:58:34.069Z,8.00
2023-04-15T18:01:01.387Z,7.28
2023-04-15T18:03:28.446Z,7.82
2023-04-15T18:05:56.262Z,7.43
2023-04-15T18:08:23.112Z,6.88
2023-04-15T18:10:49.892Z,10.50
2023-04-15T18:13:16.643Z,13.15
2023-04-15T18:15:45.578Z,12.38
2023-04-15T18:18:13.657Z,9.05
2023-04-15T18:20:40.649Z,8.10
2023-04-15T18:23:07.462Z,7.63
2023-04-15T18:25:34.251Z,8.65
2023-04-15T18:28:01.233Z,7.57
2023-04-15T18:30:28.123Z,7.90
2023-04-15T18:32:55.362Z,10.23
2023-04-15T18:35:22.902Z,10.68
2023-04-15T18:37:49.720Z,10.02
2023-04-15T18:40:16.485Z,9.98
2023-04-15T18:42:43.616Z,7.93
2023-04-15T18:45:11.091Z,11.77
2023-04-15T18:47:38.270Z,11.85
2023-04-15T18:50:05.697Z,10.63
2023-04-15T18:52:33.858Z,12.65
2023-04-15T18:55:03.295Z,8.07
2023-04-15T18:57:33.033Z,10.35
2023-04-15T19:00:02.125Z,9.68
2023-04-15T19:02:29.049Z,18.25
2023-04-15T19:04:56.012Z,12.30
2023-04-15T19:07:23.252Z,12.15
2023-04-15T19:09:50.050Z,11.45
2023-04-15T19:12:16.838Z,25.25
2023-04-15T19:14:43.594Z,23.80
2023-04-15T19:17:10.358Z,22.65
2023-04-15T19:19:37.253Z,13.93
2023-04-15T19:22:04.247Z,12.57
2023-04-15T19:24:33.158Z,8.65
2023-04-15T19:27:00.171Z,8.35
2023-04-15T19:29:28.650Z,9.80
2023-04-15T19:31:56.041Z,9.68
2023-04-15T19:34:23.091Z,10.07
2023-04-15T19:36:49.966Z,9.25
2023-04-15T19:39:23.515Z,15.43
2023-04-15T19:41:50.657Z,14.02
2023-04-15T19:44:34.819Z,9.38
2023-04-15T19:47:01.630Z,12.52
2023-04-15T19:49:28.447Z,10.05
2023-04-15T19:51:55.874Z,7.88
2023-04-15T19:54:22.847Z,7.47
2023-04-15T19:56:49.663Z,9.30
2023-04-15T19:59:16.458Z,12.63
2023-04-15T20:01:43.255Z,11.10
2023-04-15T20:04:10.229Z,9.93
2023-04-15T20:06:37.055Z,10.55
2023-04-15T20:09:04.395Z,11.35
2023-04-15T20:12:46.653Z,13.88
2023-04-15T20:14:18.292Z,13.30
2023-04-15T20:16:45.341Z,11.30
2023-04-15T20:19:13.312Z,11.88
2023-04-15T20:21:40.292Z,12.02
2023-04-15T20:24:07.249Z,11.45
2023-04-15T20:26:34.154Z,13.38
2023-04-15T20:29:01.055Z,14.07
2023-04-15T20:31:27.953Z,12.60
2023-04-15T20:33:54.861Z,14.10
2023-04-15T20:36:21.677Z,18.00
2023-04-15T20:38:48.440Z,22.77
2023-04-15T20:41:15.526Z,16.40
2023-04-15T20:43:42.278Z,15.93
2023-04-15T20:46:19.849Z,15.55
2023-04-15T20:48:48.092Z,13.50
2023-04-15T20:51:15.261Z,10.40
2023-04-15T20:53:42.291Z,13.68
2023-04-15T20:56:09.352Z,21.23
2023-04-15T20:58:36.393Z,12.82
2023-04-15T21:01:03.212Z,18.23
2023-04-15T21:03:30.272Z,16.92
2023-04-15T21:05:57.131Z,20.90
2023-04-15T21:08:29.221Z,13.00
2023-04-15T21:10:59.121Z,15.25
2023-04-15T21:13:26.255Z,11.15
2023-04-15T21:15:55.692Z,10.82
2023-04-15T21:18:22.896Z,10.93
2023-04-15T21:20:59.340Z,9.77
2023-04-15T21:23:28.577Z,12.07
2023-04-15T21:25:56.042Z,12.48
2023-04-15T21:28:23.276Z,9.30
2023-04-15T21:30:50.169Z,13.10
2023-04-15T21:33:20.263Z,12.07
2023-04-15T21:35:47.162Z,17.67
2023-04-15T21:38:14.212Z,9.88
2023-04-15T21:40:41.351Z,11.52
2023-04-15T21:43:08.502Z,11.82
2023-04-15T21:45:36.122Z,10.00
2023-04-15T21:48:07.865Z,10.73
2023-04-15T21:50:38.886Z,9.27
2023-04-15T21:53:08.188Z,10.82
2023-04-15T21:55:35.802Z,9.18
2023-04-15T21:58:02.658Z,9.55
2023-04-15T22:00:29.476Z,8.23
2023-04-15T22:02:56.438Z,9.27
2023-04-15T22:05:23.296Z,9.98
2023-04-15T22:07:50.055Z,10.75
2023-04-15T22:10:16.924Z,10.80
2023-04-15T22:12:43.646Z,10.80
2023-04-15T22:15:10.452Z,11.85
2023-04-15T22:17:37.338Z,10.52
2023-04-15T22:20:04.420Z,14.75
2023-04-15T22:22:44.102Z,9.73
2023-04-15T22:25:11.767Z,23.17
2023-04-15T22:27:38.622Z,8.13
2023-04-15T22:30:06.031Z,8.27
2023-04-15T22:32:32.862Z,16.42
2023-04-15T22:34:59.702Z,10.63
2023-04-15T22:37:30.453Z,16.63
2023-04-15T22:39:57.623Z,10.93
2023-04-15T22:42:24.742Z,9.50
2023-04-15T22:44:51.683Z,9.90
2023-04-15T22:47:19.288Z,9.00
2023-04-15T22:49:46.176Z,8.95
2023-04-15T22:52:20.222Z,10.20
2023-04-15T22:54:54.175Z,10.02
2023-04-15T22:57:20.947Z,11.13
2023-04-15T22:59:47.692Z,14.40
2023-04-15T23:02:14.597Z,11.25
2023-04-15T23:04:41.701Z,15.95
2023-04-15T23:07:08.524Z,17.88
2023-04-15T23:09:35.494Z,18.50
2023-04-15T23:12:02.946Z,16.85
2023-04-15T23:14:30.172Z,20.67
2023-04-15T23:16:57.946Z,20.13
2023-04-15T23:19:25.170Z,29.73
2023-04-15T23:21:52.665Z,26.25
2023-04-15T23:24:19.493Z,29.95
2023-04-15T23:26:46.280Z,22.40
2023-04-15T23:29:13.068Z,22.17
2023-04-15T23:31:41.684Z,24.42
2023-04-15T23:34:08.581Z,28.55
2023-04-15T23:36:35.376Z,21.40
2023-04-15T23:39:02.156Z,24.52
2023-04-15T23:41:29.067Z,23.08
2023-04-15T23:43:55.841Z,49.60
2023-04-15T23:46:22.749Z,29.58
2023-04-15T23:48:49.731Z,26.90
2023-04-15T23:51:16.800Z,20.83
2023-04-15T23:53:43.609Z,19.73
2023-04-15T23:56:11.101Z,18.60
2023-04-15T23:58:37.952Z,19.73
